createdAt,value
2019-04-14T00:00:51.481Z,100359.20
2019-04-14T00:03:26.100Z,100358.91
2019-04-14T00:05:58.237Z,100359.06
2019-04-14T00:08:28.373Z,100365.86
2019-04-14T00:10:57.840Z,100363.13
2019-04-14T00:13:27.085Z,100364.88
2019-04-14T00:15:56.689Z,100364.62
2019-04-14T00:18:27.206Z,100373.21
2019-04-14T00:20:57.517Z,100364.23
2019-04-14T00:23:28.219Z,100370.41
2019-04-14T00:26:09.762Z,100373.44
2019-04-14T00:28:39.034Z,100372.78
2019-04-14T00:31:08.739Z,100370.34
2019-04-14T00:33:38.842Z,100376.63
2019-04-14T00:36:16.139Z,100372.50
2019-04-14T00:38:47.795Z,100366.83
2019-04-14T00:41:41.343Z,100372.84
2019-04-14T00:44:03.659Z,100369.05
2019-04-14T00:46:38.702Z,100374.92
2019-04-14T00:49:09.197Z,100378.50
2019-04-14T00:51:40.567Z,100375.55
2019-04-14T00:54:10.872Z,100378.76
2019-04-14T00:56:41.113Z,100383.03
2019-04-14T00:59:11.412Z,100380.48
2019-04-14T01:01:41.681Z,100377.91
2019-04-14T01:04:12.179Z,100379.50
2019-04-14T01:06:42.609Z,100379.80
2019-04-14T01:09:13.600Z,100382.69
2019-04-14T01:11:42.866Z,100387.28
2019-04-14T01:14:12.639Z,100375.73
2019-04-14T01:16:42.999Z,100381.37
2019-04-14T01:19:13.364Z,100384.45
2019-04-14T01:21:43.624Z,100382.84
2019-04-14T01:24:14.168Z,100392.17
2019-04-14T01:26:44.238Z,100389.47
2019-04-14T01:29:14.403Z,100389.75
2019-04-14T01:31:44.685Z,100389.36
2019-04-14T01:34:15.191Z,100388.24
2019-04-14T01:36:45.328Z,100383.34
2019-04-14T01:39:15.466Z,100381.62
2019-04-14T01:41:45.631Z,100388.12
2019-04-14T01:44:15.626Z,100376.93
2019-04-14T01:46:45.591Z,100391.55
2019-04-14T01:49:15.753Z,100383.39
2019-04-14T01:51:52.897Z,100385.73
2019-04-14T01:54:43.000Z,100382.70
2019-04-14T01:57:30.677Z,100378.44
2019-04-14T02:00:01.657Z,100380.98
2019-04-14T02:02:31.503Z,100382.69
2019-04-14T02:05:01.820Z,100385.86
2019-04-14T02:07:31.934Z,100387.32
2019-04-14T02:10:01.983Z,100385.77
2019-04-14T02:12:32.361Z,100388.14
2019-04-14T02:15:02.874Z,100384.31
2019-04-14T02:17:35.063Z,100387.95
2019-04-14T02:20:05.629Z,100389.10
2019-04-14T02:22:35.580Z,100396.13
2019-04-14T02:25:05.684Z,100394.19
2019-04-14T02:27:36.053Z,100392.06
2019-04-14T02:30:10.341Z,100393.03
2019-04-14T02:33:05.363Z,100397.02
2019-04-14T02:35:42.589Z,100393.38
2019-04-14T02:38:14.480Z,100398.77
2019-04-14T02:41:13.699Z,100391.17
2019-04-14T02:43:13.022Z,100401.23
2019-04-14T02:45:43.187Z,100398.75
2019-04-14T02:48:25.488Z,100403.52
2019-04-14T02:50:38.540Z,100411.44
2019-04-14T02:53:15.199Z,100405.98
2019-04-14T02:55:42.816Z,100402.42
2019-04-14T02:58:20.657Z,100404.89
2019-04-14T03:08:23.573Z,100407.14
2019-04-14T03:10:47.976Z,100406.91
2019-04-14T03:13:21.282Z,100410.66
2019-04-14T03:21:19.703Z,100413.59
2019-04-14T03:26:44.987Z,100423.14
2019-04-14T03:29:19.234Z,100423.28
2019-04-14T03:32:04.620Z,100418.99
2019-04-14T03:39:26.947Z,100431.14
2019-04-14T03:41:58.234Z,100431.05
2019-04-14T03:52:22.128Z,100439.22
2019-04-14T03:54:20.600Z,100436.08
2019-04-14T03:56:53.375Z,100439.20
2019-04-14T03:59:24.034Z,100438.05
2019-04-14T04:01:54.526Z,100445.28
2019-04-14T04:04:25.023Z,100439.19
2019-04-14T04:06:55.355Z,100444.28
2019-04-14T04:09:26.302Z,100447.75
2019-04-14T04:11:56.621Z,100446.63
2019-04-14T04:14:27.084Z,100445.30
2019-04-14T04:17:10.371Z,100447.00
2019-04-14T04:19:44.754Z,100448.39
2019-04-14T04:22:15.834Z,100443.73
2019-04-14T04:24:47.569Z,100449.57
2019-04-14T04:27:33.630Z,100438.61
2019-04-14T04:30:08.094Z,100449.12
2019-04-14T04:32:42.629Z,100447.28
2019-04-14T04:35:13.514Z,100455.47
2019-04-14T04:37:50.363Z,100456.55
2019-04-14T04:40:22.225Z,100456.41
2019-04-14T04:42:52.674Z,100462.18
2019-04-14T04:45:22.093Z,100467.39
2019-04-14T04:47:51.868Z,100466.99
2019-04-14T04:50:21.434Z,100461.22
2019-04-14T04:52:51.765Z,100468.47
2019-04-14T04:55:22.010Z,100459.97
2019-04-14T04:57:52.385Z,100469.94
2019-04-14T05:00:22.246Z,100476.74
2019-04-14T05:02:52.712Z,100472.55
2019-04-14T05:05:58.941Z,100477.48
2019-04-14T05:08:28.669Z,100471.77
2019-04-14T05:11:18.698Z,100468.84
2019-04-14T05:13:51.107Z,100470.39
2019-04-14T05:16:19.897Z,100464.40
2019-04-14T05:18:49.294Z,100478.45
2019-04-14T05:21:19.210Z,100477.58
2019-04-14T05:23:49.538Z,100478.72
2019-04-14T05:26:19.905Z,100482.77
2019-04-14T05:28:50.559Z,100492.62
2019-04-14T05:31:20.744Z,100483.14
2019-04-14T05:33:51.167Z,100487.25
2019-04-14T05:36:21.446Z,100482.86
2019-04-14T05:38:51.815Z,100495.77
2019-04-14T05:41:22.198Z,100489.30
2019-04-14T05:43:55.627Z,100494.82
2019-04-14T05:46:23.185Z,100496.29
2019-04-14T05:48:55.649Z,100494.33
2019-04-14T05:51:26.451Z,100493.12
2019-04-14T05:53:56.641Z,100493.53
2019-04-14T05:56:26.063Z,100501.94
2019-04-14T05:58:55.795Z,100505.64
2019-04-14T06:01:25.226Z,100496.00
2019-04-14T06:03:54.608Z,100496.66
2019-04-14T06:06:24.062Z,100497.03
2019-04-14T06:08:53.321Z,100494.25
2019-04-14T06:11:22.575Z,100499.86
2019-04-14T06:13:52.072Z,100503.62
2019-04-14T06:16:21.432Z,100501.26
2019-04-14T06:18:50.830Z,100508.45
2019-04-14T06:21:20.279Z,100510.09
2019-04-14T06:23:49.619Z,100515.13
2019-04-14T06:26:19.005Z,100515.95
2019-04-14T06:28:48.666Z,100519.17
2019-04-14T06:31:36.236Z,100511.34
2019-04-14T06:34:07.285Z,100504.80
2019-04-14T06:36:46.701Z,100516.45
2019-04-14T06:39:17.916Z,100525.70
2019-04-14T06:41:47.241Z,100516.81
2019-04-14T06:44:16.649Z,100520.48
2019-04-14T06:46:46.090Z,100508.50
2019-04-14T06:49:15.483Z,100513.27
2019-04-14T06:51:44.795Z,100515.95
2019-04-14T06:54:15.214Z,100518.09
2019-04-14T06:56:44.439Z,100523.57
2019-04-14T06:59:13.849Z,100517.22
2019-04-14T07:01:43.306Z,100525.64
2019-04-14T07:04:12.627Z,100517.23
2019-04-14T07:06:42.026Z,100517.23
2019-04-14T07:09:11.417Z,100527.48
2019-04-14T07:11:40.745Z,100523.57
2019-04-14T07:14:10.062Z,100525.55
2019-04-14T07:16:39.621Z,100531.56
2019-04-14T07:19:08.966Z,100527.53
2019-04-14T07:21:38.226Z,100530.27
2019-04-14T07:24:07.576Z,100527.56
2019-04-14T07:26:36.990Z,100527.43
2019-04-14T07:29:06.335Z,100531.42
2019-04-14T07:31:55.704Z,100529.23
2019-04-14T07:34:29.262Z,100525.45
2019-04-14T07:37:00.175Z,100522.21
2019-04-14T07:39:33.651Z,100532.58
2019-04-14T07:42:04.698Z,100530.95
2019-04-14T07:44:52.039Z,100531.63
2019-04-14T07:47:28.794Z,100521.70
2019-04-14T07:50:16.000Z,100526.33
2019-04-14T07:52:52.136Z,100523.39
2019-04-14T07:55:39.491Z,100517.19
2019-04-14T07:58:10.881Z,100519.59
2019-04-14T08:00:41.987Z,100517.91
2019-04-14T08:03:18.995Z,100521.84
2019-04-14T08:05:48.386Z,100524.92
2019-04-14T08:08:17.799Z,100522.89
2019-04-14T08:10:47.124Z,100520.55
2019-04-14T08:13:16.523Z,100519.83
2019-04-14T08:15:45.865Z,100514.95
2019-04-14T08:18:15.188Z,100517.99
2019-04-14T08:20:44.683Z,100508.62
2019-04-14T08:23:13.949Z,100518.20
2019-04-14T08:25:43.331Z,100511.05
2019-04-14T08:28:12.725Z,100512.75
2019-04-14T08:30:42.059Z,100510.34
2019-04-14T08:33:11.449Z,100519.70
2019-04-14T08:35:40.854Z,100528.31
2019-04-14T08:38:10.184Z,100525.71
2019-04-14T08:40:39.519Z,100528.83
2019-04-14T08:43:22.511Z,100520.97
2019-04-14T08:46:09.475Z,100534.04
2019-04-14T08:48:49.444Z,100524.20
2019-04-14T08:51:32.789Z,100537.45
2019-04-14T08:54:16.094Z,100526.30
2019-04-14T08:56:47.143Z,100528.69
2019-04-14T08:59:21.299Z,100524.09
2019-04-14T09:02:07.118Z,100519.95
2019-04-14T09:04:37.989Z,100519.08
2019-04-14T09:07:14.617Z,100523.97
2019-04-14T09:09:48.472Z,100525.55
2019-04-14T09:12:25.582Z,100516.88
2019-04-14T09:14:57.387Z,100520.84
2019-04-14T09:17:27.901Z,100529.40
2019-04-14T09:19:57.195Z,100525.98
2019-04-14T09:22:26.722Z,100520.34
2019-04-14T09:24:56.131Z,100526.02
2019-04-14T09:27:25.566Z,100531.03
2019-04-14T09:29:55.115Z,100531.02
2019-04-14T09:32:25.484Z,100512.58
2019-04-14T09:34:54.838Z,100527.89
2019-04-14T09:37:24.225Z,100532.70
2019-04-14T09:39:53.562Z,100520.98
2019-04-14T09:42:22.960Z,100523.92
2019-04-14T09:44:52.333Z,100524.52
2019-04-14T09:47:21.776Z,100524.30
2019-04-14T09:49:51.769Z,100532.22
2019-04-14T09:52:21.231Z,100536.27
2019-04-14T09:54:50.556Z,100532.95
2019-04-14T09:57:19.804Z,100533.41
2019-04-14T09:59:49.282Z,100526.27
2019-04-14T10:02:18.590Z,100529.36
2019-04-14T10:04:47.986Z,100519.58
2019-04-14T10:10:19.503Z,100516.19
2019-04-14T10:12:49.135Z,100512.87
2019-04-14T10:15:18.309Z,100511.73
2019-04-14T10:17:47.481Z,100520.92
2019-04-14T10:20:16.788Z,100509.30
2019-04-14T10:22:45.970Z,100516.13
2019-04-14T10:25:15.217Z,100512.45
2019-04-14T10:27:44.457Z,100510.50
2019-04-14T10:30:13.704Z,100512.82
2019-04-14T10:32:42.895Z,100508.69
2019-04-14T10:35:12.194Z,100513.72
2019-04-14T10:37:41.389Z,100511.11
2019-04-14T10:40:10.691Z,100503.59
2019-04-14T10:42:39.983Z,100498.18
2019-04-14T10:45:09.233Z,100502.33
2019-04-14T10:47:38.655Z,100499.27
2019-04-14T10:50:07.918Z,100504.81
2019-04-14T10:52:37.184Z,100506.17
2019-04-14T10:55:07.362Z,100505.94
2019-04-14T10:57:36.559Z,100504.02
2019-04-14T11:00:08.746Z,100501.61
2019-04-14T11:02:37.920Z,100505.37
2019-04-14T11:05:08.622Z,100504.36
2019-04-14T11:07:37.935Z,100508.19
2019-04-14T11:10:08.041Z,100499.57
2019-04-14T11:12:37.355Z,100507.59
2019-04-14T11:15:07.534Z,100503.55
2019-04-14T11:17:36.782Z,100496.27
2019-04-14T11:20:08.952Z,100500.05
2019-04-14T11:22:38.550Z,100502.18
2019-04-14T11:25:07.859Z,100500.81
2019-04-14T11:27:37.041Z,100493.30
2019-04-14T11:30:08.690Z,100497.52
2019-04-14T11:32:55.540Z,100499.75
2019-04-14T11:35:29.547Z,100478.84
2019-04-14T11:38:00.423Z,100472.92
2019-04-14T11:40:31.289Z,100484.80
2019-04-14T11:43:00.491Z,100466.67
2019-04-14T11:45:29.775Z,100475.09
2019-04-14T11:47:59.132Z,100470.61
2019-04-14T11:50:28.368Z,100457.09
2019-04-14T11:52:57.600Z,100458.38
2019-04-14T11:55:26.859Z,100471.28
2019-04-14T11:57:56.070Z,100468.31
2019-04-14T12:00:32.766Z,100465.11
2019-04-14T12:03:15.659Z,100458.24
2019-04-14T12:06:02.429Z,100467.87
2019-04-14T12:08:33.287Z,100460.86
2019-04-14T12:11:02.798Z,100452.12
2019-04-14T12:13:32.037Z,100443.79
2019-04-14T12:16:01.240Z,100452.38
2019-04-14T12:18:30.441Z,100454.44
2019-04-14T12:20:59.741Z,100463.56
2019-04-14T12:23:29.028Z,100450.91
2019-04-14T12:26:05.050Z,100448.33
2019-04-14T12:28:29.235Z,100456.87
2019-04-14T12:30:59.682Z,100465.59
2019-04-14T12:33:29.000Z,100458.94
2019-04-14T12:35:59.905Z,100451.71
2019-04-14T12:38:29.201Z,100463.30
2019-04-14T12:41:00.469Z,100443.76
2019-04-14T12:43:31.293Z,100434.35
2019-04-14T12:46:08.160Z,100443.10
2019-04-14T12:48:39.064Z,100443.64
2019-04-14T12:51:13.015Z,100443.02
2019-04-14T12:53:42.259Z,100447.13
2019-04-14T12:56:13.537Z,100451.09
2019-04-14T12:58:56.744Z,100441.83
2019-04-14T13:01:27.573Z,100441.80
2019-04-14T13:03:56.910Z,100442.09
2019-04-14T13:06:26.149Z,100439.45
2019-04-14T13:08:55.334Z,100428.09
2019-04-14T13:11:24.508Z,100436.68
2019-04-14T13:13:53.738Z,100439.20
2019-04-14T13:16:22.988Z,100433.60
2019-04-14T13:18:52.237Z,100427.63
2019-04-14T13:21:21.527Z,100424.66
2019-04-14T13:23:50.794Z,100424.73
2019-04-14T13:26:20.059Z,100431.19
2019-04-14T13:28:49.762Z,100427.67
2019-04-14T13:31:19.012Z,100433.78
2019-04-14T13:33:48.221Z,100433.75
2019-04-14T13:36:17.549Z,100438.52
2019-04-14T13:38:46.737Z,100434.52
2019-04-14T13:41:16.048Z,100427.13
2019-04-14T13:43:45.298Z,100429.56
2019-04-14T13:46:14.563Z,100427.88
2019-04-14T13:48:43.781Z,100432.80
2019-04-14T13:51:13.160Z,100430.13
2019-04-14T13:53:42.416Z,100430.66
2019-04-14T13:56:11.808Z,100430.19
2019-04-14T13:58:41.295Z,100422.95
2019-04-14T14:01:10.659Z,100420.88
2019-04-14T14:03:39.922Z,100412.76
2019-04-14T14:06:09.179Z,100414.85
2019-04-14T14:08:38.558Z,100419.19
2019-04-14T14:11:12.077Z,100417.10
2019-04-14T14:13:48.637Z,100417.73
2019-04-14T14:16:25.014Z,100415.36
2019-04-14T14:18:55.837Z,100409.20
2019-04-14T14:21:35.486Z,100408.52
2019-04-14T14:24:06.388Z,100399.19
2019-04-14T14:26:46.178Z,100411.22
2019-04-14T14:29:15.401Z,100411.66
2019-04-14T14:31:44.667Z,100410.35
2019-04-14T14:34:13.850Z,100403.41
2019-04-14T14:36:43.226Z,100401.18
2019-04-14T14:39:14.002Z,100396.37
2019-04-14T14:41:43.278Z,100405.09
2019-04-14T14:44:12.519Z,100402.69
2019-04-14T14:46:52.150Z,100407.27
2019-04-14T14:49:25.647Z,100408.28
2019-04-14T14:51:56.528Z,100405.61
2019-04-14T14:54:25.783Z,100409.23
2019-04-14T14:56:54.967Z,100412.72
2019-04-14T14:59:24.235Z,100411.66
2019-04-14T15:01:53.489Z,100412.95
2019-04-14T15:04:22.805Z,100400.38
2019-04-14T15:06:52.092Z,100407.66
2019-04-14T15:09:21.409Z,100407.16
2019-04-14T15:11:50.608Z,100405.00
2019-04-14T15:14:19.897Z,100405.30
2019-04-14T15:16:49.163Z,100410.49
2019-04-14T15:19:18.347Z,100410.83
2019-04-14T15:21:47.558Z,100392.78
2019-04-14T15:24:16.808Z,100403.65
2019-04-14T15:26:46.045Z,100405.93
2019-04-14T15:29:15.282Z,100406.52
2019-04-14T15:31:44.518Z,100405.82
2019-04-14T15:34:13.727Z,100405.80
2019-04-14T15:36:42.981Z,100412.41
2019-04-14T15:39:12.331Z,100398.68
2019-04-14T15:41:41.567Z,100404.13
2019-04-14T15:44:10.745Z,100401.09
2019-04-14T15:46:39.985Z,100409.03
2019-04-14T15:49:09.277Z,100401.62
2019-04-14T15:51:38.471Z,100412.23
2019-04-14T15:54:07.782Z,100412.48
2019-04-14T15:56:38.606Z,100415.37
2019-04-14T15:59:15.289Z,100405.23
2019-04-14T16:01:51.752Z,100414.19
2019-04-14T16:04:25.653Z,100407.50
2019-04-14T16:07:08.252Z,100410.84
2019-04-14T16:09:50.374Z,100411.35
2019-04-14T16:12:23.980Z,100404.75
2019-04-14T16:14:54.851Z,100409.18
2019-04-14T16:17:34.663Z,100411.48
2019-04-14T16:20:06.686Z,100407.03
2019-04-14T16:22:36.115Z,100413.22
2019-04-14T16:25:07.242Z,100416.71
2019-04-14T16:27:38.171Z,100414.44
2019-04-14T16:30:24.039Z,100411.95
2019-04-14T16:32:57.804Z,100420.02
2019-04-14T16:35:28.615Z,100419.51
2019-04-14T16:37:57.795Z,100431.70
2019-04-14T16:40:26.994Z,100430.08
2019-04-14T16:42:56.584Z,100426.83
2019-04-14T16:45:25.836Z,100433.91
2019-04-14T16:47:55.135Z,100431.94
2019-04-14T16:50:24.774Z,100437.23
2019-04-14T16:53:12.025Z,100439.30
2019-04-14T16:55:45.588Z,100440.08
2019-04-14T16:58:19.484Z,100440.27
2019-04-14T17:00:50.367Z,100426.06
2019-04-14T17:03:19.548Z,100437.43
2019-04-14T17:05:48.723Z,100439.28
2019-04-14T17:08:17.950Z,100439.34
2019-04-14T17:10:47.192Z,100437.52
2019-04-14T17:13:16.534Z,100443.55
2019-04-14T17:15:56.336Z,100444.96
2019-04-14T17:18:42.645Z,100449.36
2019-04-14T17:21:18.991Z,100453.28
2019-04-14T17:23:49.812Z,100458.85
2019-04-14T17:26:23.662Z,100454.95
2019-04-14T17:29:09.082Z,100459.55
2019-04-14T17:31:42.935Z,100461.31
2019-04-14T17:34:19.734Z,100465.69
2019-04-14T17:37:06.780Z,100465.95
2019-04-14T17:39:40.313Z,100465.93
2019-04-14T17:42:13.962Z,100466.73
2019-04-14T17:44:44.790Z,100470.66
2019-04-14T17:47:31.794Z,100469.12
2019-04-14T17:50:02.625Z,100474.02
2019-04-14T17:52:36.382Z,100480.28
2019-04-14T17:55:17.698Z,100485.98
2019-04-14T17:57:51.364Z,100488.37
2019-04-14T18:00:24.919Z,100489.01
2019-04-14T18:03:10.920Z,100493.19
2019-04-14T18:05:41.750Z,100489.66
2019-04-14T18:08:15.482Z,100491.53
2019-04-14T18:10:46.310Z,100496.10
2019-04-14T18:13:37.348Z,100498.37
2019-04-14T18:16:10.949Z,100506.94
2019-04-14T18:18:56.794Z,100505.94
2019-04-14T18:21:26.121Z,100503.21
2019-04-14T18:23:55.301Z,100503.41
2019-04-14T18:26:24.631Z,100515.00
2019-04-14T18:28:57.938Z,100510.50
2019-04-14T18:31:31.246Z,100519.59
2019-04-14T18:34:18.592Z,100524.59
2019-04-14T18:36:52.248Z,100525.69
2019-04-14T18:39:39.095Z,100523.16
2019-04-14T18:42:15.692Z,100532.45
2019-04-14T18:44:55.414Z,100524.92
2019-04-14T18:47:29.005Z,100534.78
2019-04-14T18:50:05.611Z,100536.65
2019-04-14T18:52:54.487Z,100541.52
2019-04-14T18:55:41.487Z,100542.09
2019-04-14T18:58:12.357Z,100542.55
2019-04-14T19:00:55.080Z,100539.89
2019-04-14T19:03:24.504Z,100540.72
2019-04-14T19:05:53.810Z,100548.03
2019-04-14T19:08:23.001Z,100547.89
2019-04-14T19:10:53.862Z,100549.85
2019-04-14T19:13:27.188Z,100552.77
2019-04-14T19:16:00.727Z,100551.69
2019-04-14T19:18:31.604Z,100553.77
2019-04-14T19:21:02.433Z,100556.54
2019-04-14T19:23:31.633Z,100554.87
2019-04-14T19:26:00.877Z,100559.72
2019-04-14T19:28:30.171Z,100559.30
2019-04-14T19:30:59.474Z,100557.74
2019-04-14T19:33:28.682Z,100561.49
2019-04-14T19:35:57.980Z,100567.92
2019-04-14T19:38:27.192Z,100562.13
2019-04-14T19:40:56.386Z,100568.16
2019-04-14T19:43:25.668Z,100562.02
2019-04-14T19:45:56.442Z,100564.49
2019-04-14T19:48:26.390Z,100567.85
2019-04-14T19:50:55.577Z,100566.63
2019-04-14T19:53:24.774Z,100562.23
2019-04-14T19:55:54.022Z,100568.02
2019-04-14T19:58:23.273Z,100573.48
2019-04-14T20:00:52.520Z,100570.88
2019-04-14T20:03:21.840Z,100572.96
2019-04-14T20:05:51.096Z,100569.59
2019-04-14T20:08:20.301Z,100580.39
2019-04-14T20:10:50.007Z,100581.29
2019-04-14T20:13:22.262Z,100578.94
2019-04-14T20:15:55.605Z,100581.01
2019-04-14T20:18:26.429Z,100587.13
2019-04-14T20:20:57.254Z,100592.77
2019-04-14T20:23:28.137Z,100590.32
2019-04-14T20:26:10.857Z,100592.93
2019-04-14T20:28:44.473Z,100594.61
2019-04-14T20:31:15.299Z,100602.61
2019-04-14T20:33:44.498Z,100607.30
2019-04-14T20:36:14.107Z,100611.27
2019-04-14T20:38:43.307Z,100613.45
2019-04-14T20:41:12.477Z,100616.30
2019-04-14T20:43:41.696Z,100618.69
2019-04-14T20:46:10.874Z,100612.94
2019-04-14T20:48:40.202Z,100611.09
2019-04-14T20:51:09.573Z,100614.92
2019-04-14T20:53:38.748Z,100617.05
2019-04-14T20:56:08.040Z,100613.08
2019-04-14T20:58:37.226Z,100613.95
2019-04-14T21:01:07.890Z,100617.75
2019-04-14T21:03:47.731Z,100615.59
2019-04-14T21:06:34.903Z,100616.82
2019-04-14T21:09:15.519Z,100616.82
2019-04-14T21:11:46.472Z,100616.94
2019-04-14T21:14:20.017Z,100620.84
2019-04-14T21:17:05.959Z,100619.76
2019-04-14T21:19:36.793Z,100620.41
2019-04-14T21:22:10.128Z,100620.06
2019-04-14T21:24:41.122Z,100627.84
2019-04-14T21:27:17.712Z,100627.11
2019-04-14T21:30:03.726Z,100629.37
2019-04-14T21:32:37.045Z,100628.08
2019-04-14T21:35:07.884Z,100630.22
2019-04-14T21:37:48.695Z,100634.16
2019-04-14T21:40:37.340Z,100633.22
2019-04-14T21:43:06.582Z,100638.40
2019-04-14T21:45:35.908Z,100638.60
2019-04-14T21:48:05.176Z,100643.51
2019-04-14T21:50:34.464Z,100642.34
2019-04-14T21:53:03.761Z,100646.63
2019-04-14T21:55:33.307Z,100648.94
2019-04-14T21:58:06.860Z,100650.80
2019-04-14T22:01:12.070Z,100644.87
2019-04-14T22:03:55.123Z,100648.57
2019-04-14T22:06:28.442Z,100651.75
2019-04-14T22:08:57.705Z,100647.59
2019-04-14T22:11:28.551Z,100656.70
2019-04-14T22:13:57.776Z,100652.72
2019-04-14T22:16:27.927Z,100659.18
2019-04-14T22:18:57.193Z,100658.56
2019-04-14T22:21:26.439Z,100665.35
2019-04-14T22:24:01.654Z,100665.27
2019-04-14T22:26:26.682Z,100663.61
2019-04-14T22:28:55.941Z,100669.24
2019-04-14T22:31:25.223Z,100667.17
2019-04-14T22:33:54.410Z,100667.34
2019-04-14T22:36:23.618Z,100670.45
2019-04-14T22:38:52.793Z,100670.84
2019-04-14T22:41:22.095Z,100677.06
2019-04-14T22:43:51.345Z,100678.39
2019-04-14T22:46:20.765Z,100678.19
2019-04-14T22:48:49.998Z,100674.23
2019-04-14T22:51:19.166Z,100681.49
2019-04-14T22:53:48.417Z,100676.11
2019-04-14T22:56:17.657Z,100683.73
2019-04-14T22:58:46.900Z,100678.33
2019-04-14T23:01:23.495Z,100682.26
2019-04-14T23:04:10.699Z,100680.75
2019-04-14T23:06:41.833Z,100684.67
2019-04-14T23:09:21.271Z,100682.59
2019-04-14T23:11:52.958Z,100678.05
2019-04-14T23:14:29.948Z,100677.61
2019-04-14T23:17:15.855Z,100676.05
2019-04-14T23:19:49.217Z,100669.55
2019-04-14T23:22:25.768Z,100676.02
2019-04-14T23:24:55.051Z,100678.09
2019-04-14T23:27:24.290Z,100679.89
2019-04-14T23:29:53.503Z,100676.09
2019-04-14T23:32:22.750Z,100680.91
2019-04-14T23:34:52.005Z,100681.55
2019-04-14T23:37:21.223Z,100673.73
2019-04-14T23:39:50.397Z,100681.78
2019-04-14T23:42:19.583Z,100681.57
2019-04-14T23:44:48.880Z,100678.50
2019-04-14T23:47:18.129Z,100683.56
2019-04-14T23:49:47.300Z,100690.31
2019-04-14T23:52:16.613Z,100686.64
2019-04-14T23:54:45.913Z,100683.34
2019-04-14T23:57:15.091Z,100691.95
2019-04-14T23:59:44.291Z,100690.06
